International Virtual Aviation Organisation

Russian Federation and Kazakhstan MCD

 

Карточка аэропорта UWUU

Внимание!
Информация на этой странице в стадии наполнения.
Если вы не увидели какой-то информации, или заметили неточность - пожалуйста сообщите нам!
Спасибо!
Команда RU-STAFF
Название аэропортаУфа
Название аэропорта (англ.)Ufa
Превышение449 ft. (136.9 m.)
Координаты54°33.6', 55°52.2'
Высота перехода5000ft
Эшелон переходаFL070
Коды ответчика6730-6731
Зона ОрВДСамара РПИ (UWWW)
Данные METARUWUU 270330Z 12002MPS 0300 0150E R14R/0800D FZFG BKN020 M11/M11 Q1023 R14R/451038 TEMPO 0300 FZFG VV003
Проноз погоды (TAF)UWUU 270317Z 2703/2803 VRB01MPS 1000 BR BKN016 TXM03/2711Z TNM07/2703Z TEMPO 2703/2708 0200 SN FZFG VV003 FM270800 VRB01MPS 6000 BKN020 TEMPO 2708/2715 09003MPS 3100 -SN BR OVC011 TEMPO 2715/2803 0300 SN FZFG VV003
NOTAMshow/hide NOTAM
AWOS   TABLE

Информация о ВПП

ВПП Длина ВПП (м.) Покрытие Курс ВПП Частота ILS
14R3765Бетон138110.3
32L3765Бетон318 
14L2516Асфальтобетон138108.3
32R2516Асфальтобетон318109.1

Диспетчерские позиции

Позывной Наименование органа УВД Частота
UWUU_GNDУфа-Руление119.000
UWUU_TWRУфа-Старт120.900
UWUU_R_APPУфа-Круг124.000
UWUU_APPУфа-Подход126.000



Спутниковое изображение